sensor_id;sensor_type;location;lat;lon;timestamp;P1;durP1;ratioP1;P2;durP2;ratioP2
70985;SDS011;58645;43.068;25.610;2024-03-02T00:00:00;34.92;;;17.65;;
70985;SDS011;58645;43.068;25.610;2024-03-02T00:02:35;33.60;;;16.35;;
70985;SDS011;58645;43.068;25.610;2024-03-02T00:05:12;33.47;;;16.50;;
70985;SDS011;58645;43.068;25.610;2024-03-02T00:07:42;34.03;;;17.00;;
70985;SDS011;58645;43.068;25.610;2024-03-02T00:10:10;31.85;;;15.85;;
70985;SDS011;58645;43.068;25.610;2024-03-02T00:12:37;32.85;;;14.95;;
70985;SDS011;58645;43.068;25.610;2024-03-02T00:15:51;34.13;;;16.15;;
70985;SDS011;58645;43.068;25.610;2024-03-02T00:17:55;33.65;;;15.13;;
70985;SDS011;58645;43.068;25.610;2024-03-02T00:20:22;30.25;;;16.08;;
70985;SDS011;58645;43.068;25.610;2024-03-02T00:22:48;33.90;;;15.98;;
70985;SDS011;58645;43.068;25.610;2024-03-02T00:25:15;32.67;;;16.70;;
70985;SDS011;58645;43.068;25.610;2024-03-02T00:27:41;31.58;;;14.93;;
70985;SDS011;58645;43.068;25.610;2024-03-02T00:32:58;32.33;;;15.52;;
70985;SDS011;58645;43.068;25.610;2024-03-02T00:35:24;32.90;;;16.70;;
70985;SDS011;58645;43.068;25.610;2024-03-02T00:37:50;35.63;;;17.75;;
70985;SDS011;58645;43.068;25.610;2024-03-02T00:40:16;30.40;;;15.27;;
70985;SDS011;58645;43.068;25.610;2024-03-02T00:42:42;31.92;;;15.35;;
70985;SDS011;58645;43.068;25.610;2024-03-02T00:45:08;29.50;;;15.43;;
70985;SDS011;58645;43.068;25.610;2024-03-02T00:47:38;34.53;;;16.25;;
70985;SDS011;58645;43.068;25.610;2024-03-02T00:50:06;29.80;;;14.82;;
70985;SDS011;58645;43.068;25.610;2024-03-02T00:52:34;30.40;;;15.43;;
70985;SDS011;58645;43.068;25.610;2024-03-02T00:54:59;34.40;;;16.52;;
70985;SDS011;58645;43.068;25.610;2024-03-02T00:57:25;32.35;;;16.88;;
70985;SDS011;58645;43.068;25.610;2024-03-02T00:59:54;30.92;;;15.63;;
70985;SDS011;58645;43.068;25.610;2024-03-02T01:02:19;32.47;;;14.30;;
70985;SDS011;58645;43.068;25.610;2024-03-02T01:04:45;35.47;;;17.13;;
70985;SDS011;58645;43.068;25.610;2024-03-02T01:07:11;31.88;;;17.08;;
70985;SDS011;58645;43.068;25.610;2024-03-02T01:09:36;32.28;;;14.93;;
70985;SDS011;58645;43.068;25.610;2024-03-02T01:12:02;32.25;;;15.68;;
70985;SDS011;58645;43.068;25.610;2024-03-02T01:14:28;32.17;;;14.88;;
70985;SDS011;58645;43.068;25.610;2024-03-02T01:16:54;30.95;;;16.95;;
70985;SDS011;58645;43.068;25.610;2024-03-02T01:19:20;32.13;;;14.63;;
70985;SDS011;58645;43.068;25.610;2024-03-02T01:21:46;32.50;;;15.40;;
70985;SDS011;58645;43.068;25.610;2024-03-02T01:24:11;30.52;;;15.80;;
70985;SDS011;58645;43.068;25.610;2024-03-02T01:26:38;38.30;;;16.50;;
70985;SDS011;58645;43.068;25.610;2024-03-02T01:29:04;38.25;;;16.83;;
70985;SDS011;58645;43.068;25.610;2024-03-02T01:31:29;32.30;;;14.55;;
70985;SDS011;58645;43.068;25.610;2024-03-02T01:33:55;31.00;;;15.13;;
70985;SDS011;58645;43.068;25.610;2024-03-02T01:36:21;33.75;;;17.08;;
70985;SDS011;58645;43.068;25.610;2024-03-02T01:38:47;30.73;;;14.07;;
70985;SDS011;58645;43.068;25.610;2024-03-02T01:41:12;32.67;;;16.20;;
70985;SDS011;58645;43.068;25.610;2024-03-02T01:43:38;27.95;;;13.43;;
70985;SDS011;58645;43.068;25.610;2024-03-02T01:46:04;27.35;;;14.15;;
70985;SDS011;58645;43.068;25.610;2024-03-02T01:48:30;29.00;;;14.02;;
70985;SDS011;58645;43.068;25.610;2024-03-02T01:50:55;30.85;;;15.13;;
70985;SDS011;58645;43.068;25.610;2024-03-02T01:53:21;32.60;;;15.48;;
70985;SDS011;58645;43.068;25.610;2024-03-02T01:55:47;31.15;;;14.52;;
70985;SDS011;58645;43.068;25.610;2024-03-02T01:58:13;36.47;;;17.45;;
70985;SDS011;58645;43.068;25.610;2024-03-02T02:00:38;29.15;;;15.15;;
70985;SDS011;58645;43.068;25.610;2024-03-02T02:03:04;29.40;;;15.00;;
70985;SDS011;58645;43.068;25.610;2024-03-02T02:05:31;31.10;;;13.48;;
70985;SDS011;58645;43.068;25.610;2024-03-02T02:07:57;28.70;;;14.35;;
70985;SDS011;58645;43.068;25.610;2024-03-02T02:10:23;27.92;;;13.45;;
70985;SDS011;58645;43.068;25.610;2024-03-02T02:12:49;28.17;;;14.98;;
70985;SDS011;58645;43.068;25.610;2024-03-02T02:17:51;33.25;;;16.50;;
70985;SDS011;58645;43.068;25.610;2024-03-02T02:20:17;33.85;;;15.88;;
70985;SDS011;58645;43.068;25.610;2024-03-02T02:25:26;33.80;;;14.80;;
70985;SDS011;58645;43.068;25.610;2024-03-02T02:30:19;33.47;;;16.83;;
70985;SDS011;58645;43.068;25.610;2024-03-02T02:32:49;39.05;;;18.10;;
70985;SDS011;58645;43.068;25.610;2024-03-02T02:35:15;32.97;;;15.43;;
70985;SDS011;58645;43.068;25.610;2024-03-02T02:37:41;36.83;;;15.13;;
70985;SDS011;58645;43.068;25.610;2024-03-02T02:40:07;32.90;;;15.20;;
70985;SDS011;58645;43.068;25.610;2024-03-02T02:42:34;25.42;;;13.23;;
70985;SDS011;58645;43.068;25.610;2024-03-02T02:44:59;26.30;;;13.23;;
70985;SDS011;58645;43.068;25.610;2024-03-02T02:47:25;29.88;;;12.80;;
70985;SDS011;58645;43.068;25.610;2024-03-02T02:49:51;27.33;;;13.50;;
70985;SDS011;58645;43.068;25.610;2024-03-02T02:52:17;27.67;;;12.60;;
70985;SDS011;58645;43.068;25.610;2024-03-02T02:54:43;23.80;;;12.18;;
70985;SDS011;58645;43.068;25.610;2024-03-02T02:57:09;28.75;;;14.02;;
70985;SDS011;58645;43.068;25.610;2024-03-02T02:59:35;22.25;;;11.52;;
70985;SDS011;58645;43.068;25.610;2024-03-02T03:02:02;27.30;;;11.85;;
70985;SDS011;58645;43.068;25.610;2024-03-02T03:04:27;22.73;;;11.73;;
70985;SDS011;58645;43.068;25.610;2024-03-02T03:06:53;26.83;;;11.60;;
70985;SDS011;58645;43.068;25.610;2024-03-02T03:09:19;23.15;;;11.35;;
70985;SDS011;58645;43.068;25.610;2024-03-02T03:11:44;28.10;;;12.50;;
70985;SDS011;58645;43.068;25.610;2024-03-02T03:14:10;22.77;;;12.85;;
70985;SDS011;58645;43.068;25.610;2024-03-02T03:16:36;27.42;;;13.77;;
70985;SDS011;58645;43.068;25.610;2024-03-02T03:19:02;24.52;;;12.98;;
70985;SDS011;58645;43.068;25.610;2024-03-02T03:21:28;24.10;;;12.65;;
70985;SDS011;58645;43.068;25.610;2024-03-02T03:23:53;24.45;;;11.57;;
70985;SDS011;58645;43.068;25.610;2024-03-02T03:26:20;27.95;;;12.68;;
70985;SDS011;58645;43.068;25.610;2024-03-02T03:28:46;27.38;;;13.20;;
70985;SDS011;58645;43.068;25.610;2024-03-02T03:31:11;28.58;;;12.63;;
70985;SDS011;58645;43.068;25.610;2024-03-02T03:33:37;28.55;;;13.60;;
70985;SDS011;58645;43.068;25.610;2024-03-02T03:36:03;26.38;;;12.40;;
70985;SDS011;58645;43.068;25.610;2024-03-02T03:38:29;26.10;;;12.23;;
70985;SDS011;58645;43.068;25.610;2024-03-02T03:40:55;31.42;;;14.65;;
70985;SDS011;58645;43.068;25.610;2024-03-02T03:43:21;27.40;;;12.40;;
70985;SDS011;58645;43.068;25.610;2024-03-02T03:45:46;25.92;;;11.63;;
70985;SDS011;58645;43.068;25.610;2024-03-02T03:48:12;26.50;;;11.98;;
70985;SDS011;58645;43.068;25.610;2024-03-02T03:50:38;27.33;;;12.70;;
70985;SDS011;58645;43.068;25.610;2024-03-02T03:53:04;26.67;;;11.65;;
70985;SDS011;58645;43.068;25.610;2024-03-02T03:55:29;25.98;;;14.32;;
70985;SDS011;58645;43.068;25.610;2024-03-02T03:57:55;34.20;;;17.23;;
70985;SDS011;58645;43.068;25.610;2024-03-02T04:00:21;32.95;;;16.98;;
70985;SDS011;58645;43.068;25.610;2024-03-02T04:02:47;28.33;;;15.55;;
70985;SDS011;58645;43.068;25.610;2024-03-02T04:05:12;27.45;;;14.18;;
70985;SDS011;58645;43.068;25.610;2024-03-02T04:07:38;28.60;;;14.55;;
70985;SDS011;58645;43.068;25.610;2024-03-02T04:10:11;32.63;;;15.38;;
70985;SDS011;58645;43.068;25.610;2024-03-02T04:12:37;27.23;;;13.90;;
70985;SDS011;58645;43.068;25.610;2024-03-02T04:15:06;31.70;;;14.00;;
70985;SDS011;58645;43.068;25.610;2024-03-02T04:17:32;29.00;;;12.45;;
70985;SDS011;58645;43.068;25.610;2024-03-02T04:19:59;25.70;;;12.50;;
70985;SDS011;58645;43.068;25.610;2024-03-02T04:22:26;26.95;;;12.77;;
70985;SDS011;58645;43.068;25.610;2024-03-02T04:24:52;26.80;;;13.02;;
70985;SDS011;58645;43.068;25.610;2024-03-02T04:27:18;22.50;;;12.32;;
70985;SDS011;58645;43.068;25.610;2024-03-02T04:29:44;24.48;;;13.27;;
70985;SDS011;58645;43.068;25.610;2024-03-02T04:32:09;23.40;;;11.05;;
70985;SDS011;58645;43.068;25.610;2024-03-02T04:34:35;24.27;;;12.38;;
70985;SDS011;58645;43.068;25.610;2024-03-02T04:37:01;21.67;;;12.05;;
70985;SDS011;58645;43.068;25.610;2024-03-02T04:39:26;22.13;;;12.35;;
70985;SDS011;58645;43.068;25.610;2024-03-02T04:41:52;21.73;;;11.70;;
70985;SDS011;58645;43.068;25.610;2024-03-02T04:44:18;23.23;;;12.98;;
70985;SDS011;58645;43.068;25.610;2024-03-02T04:46:43;23.90;;;12.85;;
70985;SDS011;58645;43.068;25.610;2024-03-02T04:49:09;25.08;;;12.85;;
70985;SDS011;58645;43.068;25.610;2024-03-02T04:51:35;29.80;;;14.73;;
70985;SDS011;58645;43.068;25.610;2024-03-02T04:54:00;29.35;;;14.05;;
70985;SDS011;58645;43.068;25.610;2024-03-02T04:56:26;32.58;;;14.88;;
70985;SDS011;58645;43.068;25.610;2024-03-02T04:58:58;29.33;;;16.42;;
70985;SDS011;58645;43.068;25.610;2024-03-02T05:01:24;29.17;;;16.35;;
70985;SDS011;58645;43.068;25.610;2024-03-02T05:03:50;35.88;;;16.20;;
70985;SDS011;58645;43.068;25.610;2024-03-02T05:06:15;35.65;;;15.23;;
70985;SDS011;58645;43.068;25.610;2024-03-02T05:08:41;33.17;;;14.70;;
70985;SDS011;58645;43.068;25.610;2024-03-02T05:11:07;32.45;;;16.08;;
70985;SDS011;58645;43.068;25.610;2024-03-02T05:13:51;33.38;;;15.90;;
70985;SDS011;58645;43.068;25.610;2024-03-02T05:16:17;30.88;;;16.13;;
70985;SDS011;58645;43.068;25.610;2024-03-02T05:18:42;37.95;;;16.33;;
70985;SDS011;58645;43.068;25.610;2024-03-02T05:21:08;34.03;;;17.52;;
70985;SDS011;58645;43.068;25.610;2024-03-02T05:23:34;26.70;;;14.85;;
70985;SDS011;58645;43.068;25.610;2024-03-02T05:25:59;36.33;;;15.85;;
70985;SDS011;58645;43.068;25.610;2024-03-02T05:28:25;33.67;;;15.32;;
70985;SDS011;58645;43.068;25.610;2024-03-02T05:30:51;28.25;;;13.45;;
70985;SDS011;58645;43.068;25.610;2024-03-02T05:33:16;33.47;;;15.27;;
70985;SDS011;58645;43.068;25.610;2024-03-02T05:35:43;31.45;;;14.95;;
70985;SDS011;58645;43.068;25.610;2024-03-02T05:40:34;29.55;;;14.80;;
70985;SDS011;58645;43.068;25.610;2024-03-02T05:43:01;29.35;;;13.35;;
70985;SDS011;58645;43.068;25.610;2024-03-02T05:45:26;28.83;;;13.95;;
70985;SDS011;58645;43.068;25.610;2024-03-02T05:47:52;29.33;;;13.70;;
70985;SDS011;58645;43.068;25.610;2024-03-02T05:50:18;33.45;;;17.98;;
70985;SDS011;58645;43.068;25.610;2024-03-02T05:52:45;34.45;;;15.57;;
70985;SDS011;58645;43.068;25.610;2024-03-02T05:55:10;33.90;;;18.08;;
70985;SDS011;58645;43.068;25.610;2024-03-02T05:57:36;34.72;;;15.73;;
70985;SDS011;58645;43.068;25.610;2024-03-02T06:00:20;35.53;;;16.77;;
70985;SDS011;58645;43.068;25.610;2024-03-02T06:02:47;36.05;;;16.75;;
70985;SDS011;58645;43.068;25.610;2024-03-02T06:05:13;39.88;;;17.70;;
70985;SDS011;58645;43.068;25.610;2024-03-02T06:07:40;35.95;;;17.60;;
70985;SDS011;58645;43.068;25.610;2024-03-02T06:10:06;36.70;;;16.17;;
70985;SDS011;58645;43.068;25.610;2024-03-02T06:12:34;38.50;;;18.33;;
70985;SDS011;58645;43.068;25.610;2024-03-02T06:14:59;33.70;;;16.95;;
70985;SDS011;58645;43.068;25.610;2024-03-02T06:17:25;35.83;;;16.55;;
70985;SDS011;58645;43.068;25.610;2024-03-02T06:19:51;41.15;;;15.82;;
70985;SDS011;58645;43.068;25.610;2024-03-02T06:22:17;38.35;;;16.10;;
70985;SDS011;58645;43.068;25.610;2024-03-02T06:24:44;34.65;;;16.45;;
70985;SDS011;58645;43.068;25.610;2024-03-02T06:27:10;35.40;;;17.40;;
70985;SDS011;58645;43.068;25.610;2024-03-02T06:29:35;37.03;;;17.13;;
70985;SDS011;58645;43.068;25.610;2024-03-02T06:32:01;33.05;;;15.63;;
70985;SDS011;58645;43.068;25.610;2024-03-02T06:34:27;36.55;;;17.88;;
70985;SDS011;58645;43.068;25.610;2024-03-02T06:36:52;39.08;;;18.20;;
70985;SDS011;58645;43.068;25.610;2024-03-02T06:39:18;33.30;;;15.43;;
70985;SDS011;58645;43.068;25.610;2024-03-02T06:41:44;31.08;;;16.25;;
70985;SDS011;58645;43.068;25.610;2024-03-02T06:44:12;33.88;;;16.02;;
70985;SDS011;58645;43.068;25.610;2024-03-02T06:46:38;29.50;;;14.80;;
70985;SDS011;58645;43.068;25.610;2024-03-02T06:49:04;32.75;;;16.52;;
70985;SDS011;58645;43.068;25.610;2024-03-02T06:51:29;31.40;;;15.32;;
70985;SDS011;58645;43.068;25.610;2024-03-02T06:53:55;29.98;;;14.95;;
70985;SDS011;58645;43.068;25.610;2024-03-02T06:56:21;34.63;;;15.00;;
70985;SDS011;58645;43.068;25.610;2024-03-02T06:58:47;34.65;;;16.90;;
70985;SDS011;58645;43.068;25.610;2024-03-02T07:01:13;35.35;;;17.35;;
70985;SDS011;58645;43.068;25.610;2024-03-02T07:03:39;36.75;;;15.65;;
70985;SDS011;58645;43.068;25.610;2024-03-02T07:06:05;34.40;;;16.00;;
70985;SDS011;58645;43.068;25.610;2024-03-02T07:08:31;33.63;;;15.20;;
70985;SDS011;58645;43.068;25.610;2024-03-02T07:10:56;37.08;;;15.55;;
70985;SDS011;58645;43.068;25.610;2024-03-02T07:13:22;27.10;;;15.60;;
70985;SDS011;58645;43.068;25.610;2024-03-02T07:15:48;32.80;;;14.48;;
70985;SDS011;58645;43.068;25.610;2024-03-02T07:18:39;27.52;;;13.95;;
70985;SDS011;58645;43.068;25.610;2024-03-02T07:21:10;33.25;;;13.93;;
70985;SDS011;58645;43.068;25.610;2024-03-02T07:23:36;30.70;;;15.98;;
70985;SDS011;58645;43.068;25.610;2024-03-02T07:26:02;31.80;;;15.82;;
70985;SDS011;58645;43.068;25.610;2024-03-02T07:28:28;29.27;;;14.80;;
70985;SDS011;58645;43.068;25.610;2024-03-02T07:31:00;29.60;;;15.30;;
70985;SDS011;58645;43.068;25.610;2024-03-02T07:33:26;30.00;;;16.27;;
70985;SDS011;58645;43.068;25.610;2024-03-02T07:35:53;36.30;;;16.92;;
70985;SDS011;58645;43.068;25.610;2024-03-02T07:38:20;28.55;;;16.38;;
70985;SDS011;58645;43.068;25.610;2024-03-02T07:40:47;28.38;;;13.02;;
70985;SDS011;58645;43.068;25.610;2024-03-02T07:43:17;27.58;;;14.32;;
70985;SDS011;58645;43.068;25.610;2024-03-02T07:45:43;26.48;;;14.65;;
70985;SDS011;58645;43.068;25.610;2024-03-02T07:48:09;30.70;;;14.98;;
70985;SDS011;58645;43.068;25.610;2024-03-02T07:50:35;29.23;;;15.45;;
70985;SDS011;58645;43.068;25.610;2024-03-02T07:53:01;29.50;;;15.57;;
70985;SDS011;58645;43.068;25.610;2024-03-02T07:55:27;32.88;;;15.30;;
70985;SDS011;58645;43.068;25.610;2024-03-02T07:57:52;28.13;;;14.73;;
70985;SDS011;58645;43.068;25.610;2024-03-02T08:00:18;25.77;;;13.75;;
70985;SDS011;58645;43.068;25.610;2024-03-02T08:02:44;29.52;;;15.80;;
70985;SDS011;58645;43.068;25.610;2024-03-02T08:05:10;29.80;;;14.32;;
70985;SDS011;58645;43.068;25.610;2024-03-02T08:07:36;28.50;;;13.63;;
70985;SDS011;58645;43.068;25.610;2024-03-02T08:10:01;28.98;;;14.93;;
70985;SDS011;58645;43.068;25.610;2024-03-02T08:12:28;28.50;;;15.10;;
70985;SDS011;58645;43.068;25.610;2024-03-02T08:14:54;30.52;;;16.52;;
70985;SDS011;58645;43.068;25.610;2024-03-02T08:17:20;28.05;;;15.93;;
70985;SDS011;58645;43.068;25.610;2024-03-02T08:19:48;28.58;;;15.95;;
70985;SDS011;58645;43.068;25.610;2024-03-02T08:22:14;45.17;;;19.48;;
70985;SDS011;58645;43.068;25.610;2024-03-02T08:24:40;28.75;;;16.13;;
70985;SDS011;58645;43.068;25.610;2024-03-02T08:27:06;26.27;;;15.45;;
70985;SDS011;58645;43.068;25.610;2024-03-02T08:29:32;28.23;;;15.50;;
70985;SDS011;58645;43.068;25.610;2024-03-02T08:31:57;35.88;;;17.98;;
70985;SDS011;58645;43.068;25.610;2024-03-02T08:34:23;34.80;;;17.67;;
70985;SDS011;58645;43.068;25.610;2024-03-02T08:36:49;39.40;;;19.42;;
70985;SDS011;58645;43.068;25.610;2024-03-02T08:39:15;28.60;;;14.95;;
70985;SDS011;58645;43.068;25.610;2024-03-02T08:41:41;28.08;;;14.98;;
70985;SDS011;58645;43.068;25.610;2024-03-02T08:44:08;27.20;;;14.23;;
70985;SDS011;58645;43.068;25.610;2024-03-02T08:46:34;23.77;;;13.30;;
70985;SDS011;58645;43.068;25.610;2024-03-02T08:49:00;22.95;;;12.75;;
70985;SDS011;58645;43.068;25.610;2024-03-02T08:51:26;22.58;;;12.13;;
70985;SDS011;58645;43.068;25.610;2024-03-02T08:53:51;25.13;;;12.57;;
70985;SDS011;58645;43.068;25.610;2024-03-02T08:56:17;23.60;;;11.90;;
70985;SDS011;58645;43.068;25.610;2024-03-02T08:58:43;22.83;;;10.40;;
70985;SDS011;58645;43.068;25.610;2024-03-02T09:01:09;22.63;;;12.27;;
70985;SDS011;58645;43.068;25.610;2024-03-02T09:03:36;26.88;;;13.02;;
70985;SDS011;58645;43.068;25.610;2024-03-02T09:06:02;23.08;;;12.23;;
70985;SDS011;58645;43.068;25.610;2024-03-02T09:08:28;23.90;;;12.98;;
70985;SDS011;58645;43.068;25.610;2024-03-02T09:10:54;23.40;;;12.75;;
70985;SDS011;58645;43.068;25.610;2024-03-02T09:13:21;20.75;;;11.85;;
70985;SDS011;58645;43.068;25.610;2024-03-02T09:15:47;20.85;;;13.13;;
70985;SDS011;58645;43.068;25.610;2024-03-02T09:18:13;24.30;;;14.23;;
70985;SDS011;58645;43.068;25.610;2024-03-02T09:20:39;23.13;;;13.02;;
70985;SDS011;58645;43.068;25.610;2024-03-02T09:23:05;22.25;;;13.18;;
70985;SDS011;58645;43.068;25.610;2024-03-02T09:25:30;26.00;;;13.35;;
70985;SDS011;58645;43.068;25.610;2024-03-02T09:27:56;19.88;;;12.32;;
70985;SDS011;58645;43.068;25.610;2024-03-02T09:30:22;23.90;;;13.38;;
70985;SDS011;58645;43.068;25.610;2024-03-02T09:32:47;22.90;;;12.80;;
70985;SDS011;58645;43.068;25.610;2024-03-02T09:35:13;24.65;;;13.73;;
70985;SDS011;58645;43.068;25.610;2024-03-02T09:37:39;24.27;;;14.70;;
70985;SDS011;58645;43.068;25.610;2024-03-02T09:40:05;24.83;;;13.18;;
70985;SDS011;58645;43.068;25.610;2024-03-02T09:42:31;21.38;;;11.65;;
70985;SDS011;58645;43.068;25.610;2024-03-02T09:44:57;25.63;;;13.75;;
70985;SDS011;58645;43.068;25.610;2024-03-02T09:47:23;22.10;;;13.27;;
70985;SDS011;58645;43.068;25.610;2024-03-02T09:49:49;22.63;;;13.25;;
70985;SDS011;58645;43.068;25.610;2024-03-02T09:52:15;21.92;;;12.43;;
70985;SDS011;58645;43.068;25.610;2024-03-02T09:54:41;23.10;;;13.35;;
70985;SDS011;58645;43.068;25.610;2024-03-02T09:57:07;23.58;;;11.23;;
70985;SDS011;58645;43.068;25.610;2024-03-02T09:59:33;22.33;;;12.80;;
70985;SDS011;58645;43.068;25.610;2024-03-02T10:04:26;19.75;;;12.07;;
70985;SDS011;58645;43.068;25.610;2024-03-02T10:09:39;22.85;;;11.63;;
70985;SDS011;58645;43.068;25.610;2024-03-02T10:12:10;21.45;;;11.82;;
70985;SDS011;58645;43.068;25.610;2024-03-02T10:14:37;22.95;;;11.80;;
70985;SDS011;58645;43.068;25.610;2024-03-02T10:17:04;22.35;;;12.23;;
70985;SDS011;58645;43.068;25.610;2024-03-02T10:19:34;20.52;;;12.00;;
70985;SDS011;58645;43.068;25.610;2024-03-02T10:22:05;20.33;;;11.30;;
70985;SDS011;58645;43.068;25.610;2024-03-02T10:24:35;20.77;;;12.15;;
70985;SDS011;58645;43.068;25.610;2024-03-02T10:27:05;21.60;;;12.30;;
70985;SDS011;58645;43.068;25.610;2024-03-02T10:29:39;23.02;;;12.20;;
70985;SDS011;58645;43.068;25.610;2024-03-02T10:32:06;22.48;;;12.65;;
70985;SDS011;58645;43.068;25.610;2024-03-02T10:34:35;28.90;;;16.77;;
70985;SDS011;58645;43.068;25.610;2024-03-02T10:37:01;26.23;;;13.63;;
70985;SDS011;58645;43.068;25.610;2024-03-02T10:39:27;24.13;;;12.93;;
70985;SDS011;58645;43.068;25.610;2024-03-02T10:41:54;21.52;;;13.20;;
70985;SDS011;58645;43.068;25.610;2024-03-02T10:44:22;22.20;;;11.65;;
70985;SDS011;58645;43.068;25.610;2024-03-02T10:49:14;19.15;;;11.23;;
70985;SDS011;58645;43.068;25.610;2024-03-02T10:51:40;19.65;;;10.18;;
70985;SDS011;58645;43.068;25.610;2024-03-02T10:54:06;23.17;;;10.23;;
70985;SDS011;58645;43.068;25.610;2024-03-02T11:01:58;24.23;;;10.18;;
70985;SDS011;58645;43.068;25.610;2024-03-02T11:04:26;19.00;;;9.68;;
70985;SDS011;58645;43.068;25.610;2024-03-02T11:06:54;17.77;;;9.48;;
70985;SDS011;58645;43.068;25.610;2024-03-02T11:09:27;19.58;;;11.10;;
70985;SDS011;58645;43.068;25.610;2024-03-02T11:12:06;19.88;;;11.43;;
70985;SDS011;58645;43.068;25.610;2024-03-02T11:14:40;17.88;;;11.23;;
70985;SDS011;58645;43.068;25.610;2024-03-02T11:17:10;18.48;;;10.00;;
70985;SDS011;58645;43.068;25.610;2024-03-02T11:19:38;19.27;;;10.65;;
70985;SDS011;58645;43.068;25.610;2024-03-02T11:22:05;18.15;;;11.43;;
70985;SDS011;58645;43.068;25.610;2024-03-02T11:24:32;19.88;;;11.65;;
70985;SDS011;58645;43.068;25.610;2024-03-02T11:32:15;18.00;;;11.52;;
70985;SDS011;58645;43.068;25.610;2024-03-02T11:34:43;17.95;;;10.18;;
70985;SDS011;58645;43.068;25.610;2024-03-02T11:37:14;19.88;;;11.07;;
70985;SDS011;58645;43.068;25.610;2024-03-02T11:39:42;17.38;;;9.60;;
70985;SDS011;58645;43.068;25.610;2024-03-02T11:42:12;15.85;;;10.15;;
70985;SDS011;58645;43.068;25.610;2024-03-02T11:44:39;19.23;;;11.18;;
70985;SDS011;58645;43.068;25.610;2024-03-02T11:47:16;19.23;;;12.40;;
70985;SDS011;58645;43.068;25.610;2024-03-02T11:52:16;23.23;;;15.57;;
70985;SDS011;58645;43.068;25.610;2024-03-02T11:54:46;24.30;;;14.63;;
70985;SDS011;58645;43.068;25.610;2024-03-02T11:57:14;26.55;;;18.42;;
70985;SDS011;58645;43.068;25.610;2024-03-02T11:59:41;20.30;;;10.80;;
70985;SDS011;58645;43.068;25.610;2024-03-02T12:04:39;28.25;;;14.05;;
70985;SDS011;58645;43.068;25.610;2024-03-02T12:07:05;18.00;;;9.85;;
70985;SDS011;58645;43.068;25.610;2024-03-02T12:09:31;18.80;;;10.98;;
70985;SDS011;58645;43.068;25.610;2024-03-02T12:14:29;22.40;;;11.82;;
70985;SDS011;58645;43.068;25.610;2024-03-02T12:16:56;17.88;;;9.57;;
70985;SDS011;58645;43.068;25.610;2024-03-02T12:19:23;18.98;;;11.27;;
70985;SDS011;58645;43.068;25.610;2024-03-02T12:21:54;18.85;;;11.30;;
70985;SDS011;58645;43.068;25.610;2024-03-02T12:24:28;20.23;;;10.52;;
70985;SDS011;58645;43.068;25.610;2024-03-02T12:26:54;18.48;;;9.85;;
70985;SDS011;58645;43.068;25.610;2024-03-02T12:29:20;22.63;;;11.85;;
70985;SDS011;58645;43.068;25.610;2024-03-02T12:31:52;23.33;;;12.50;;
70985;SDS011;58645;43.068;25.610;2024-03-02T12:34:18;26.63;;;13.80;;
70985;SDS011;58645;43.068;25.610;2024-03-02T12:36:45;28.70;;;15.38;;
70985;SDS011;58645;43.068;25.610;2024-03-02T12:39:14;30.02;;;19.58;;
70985;SDS011;58645;43.068;25.610;2024-03-02T12:41:46;23.33;;;14.02;;
70985;SDS011;58645;43.068;25.610;2024-03-02T12:44:12;21.85;;;13.13;;
70985;SDS011;58645;43.068;25.610;2024-03-02T12:46:37;18.65;;;11.05;;
70985;SDS011;58645;43.068;25.610;2024-03-02T12:49:22;20.08;;;11.38;;
70985;SDS011;58645;43.068;25.610;2024-03-02T12:51:48;18.60;;;11.15;;
70985;SDS011;58645;43.068;25.610;2024-03-02T12:54:17;20.48;;;9.93;;
70985;SDS011;58645;43.068;25.610;2024-03-02T12:56:43;24.05;;;11.82;;
70985;SDS011;58645;43.068;25.610;2024-03-02T12:59:18;19.55;;;10.45;;
70985;SDS011;58645;43.068;25.610;2024-03-02T13:01:50;23.52;;;10.57;;
70985;SDS011;58645;43.068;25.610;2024-03-02T13:04:16;19.77;;;9.57;;
70985;SDS011;58645;43.068;25.610;2024-03-02T13:06:42;19.35;;;10.82;;
70985;SDS011;58645;43.068;25.610;2024-03-02T13:09:08;19.23;;;9.88;;
70985;SDS011;58645;43.068;25.610;2024-03-02T13:11:39;21.70;;;10.27;;
70985;SDS011;58645;43.068;25.610;2024-03-02T13:14:06;19.38;;;12.15;;
70985;SDS011;58645;43.068;25.610;2024-03-02T13:16:37;20.85;;;10.27;;
70985;SDS011;58645;43.068;25.610;2024-03-02T13:19:07;14.20;;;8.93;;
70985;SDS011;58645;43.068;25.610;2024-03-02T13:21:34;21.95;;;10.45;;
70985;SDS011;58645;43.068;25.610;2024-03-02T13:24:00;19.65;;;11.13;;
70985;SDS011;58645;43.068;25.610;2024-03-02T13:26:26;19.45;;;11.07;;
70985;SDS011;58645;43.068;25.610;2024-03-02T13:28:52;19.65;;;9.38;;
70985;SDS011;58645;43.068;25.610;2024-03-02T13:31:18;19.58;;;11.20;;
70985;SDS011;58645;43.068;25.610;2024-03-02T13:33:44;20.10;;;9.63;;
70985;SDS011;58645;43.068;25.610;2024-03-02T13:36:10;20.55;;;10.02;;
70985;SDS011;58645;43.068;25.610;2024-03-02T13:38:35;19.25;;;11.43;;
70985;SDS011;58645;43.068;25.610;2024-03-02T13:41:01;17.55;;;10.20;;
70985;SDS011;58645;43.068;25.610;2024-03-02T13:43:27;20.02;;;10.68;;
70985;SDS011;58645;43.068;25.610;2024-03-02T13:45:56;22.48;;;11.88;;
70985;SDS011;58645;43.068;25.610;2024-03-02T13:48:23;20.88;;;10.02;;
70985;SDS011;58645;43.068;25.610;2024-03-02T13:50:51;18.67;;;11.18;;
70985;SDS011;58645;43.068;25.610;2024-03-02T13:53:18;27.65;;;13.65;;
70985;SDS011;58645;43.068;25.610;2024-03-02T13:55:44;25.02;;;12.75;;
70985;SDS011;58645;43.068;25.610;2024-03-02T13:58:10;20.98;;;11.55;;
70985;SDS011;58645;43.068;25.610;2024-03-02T14:00:37;23.67;;;11.57;;
70985;SDS011;58645;43.068;25.610;2024-03-02T14:03:06;21.75;;;12.07;;
70985;SDS011;58645;43.068;25.610;2024-03-02T14:05:32;22.42;;;12.43;;
70985;SDS011;58645;43.068;25.610;2024-03-02T14:07:58;21.52;;;10.38;;
70985;SDS011;58645;43.068;25.610;2024-03-02T14:10:25;19.42;;;12.07;;
70985;SDS011;58645;43.068;25.610;2024-03-02T14:12:52;20.42;;;11.98;;
70985;SDS011;58645;43.068;25.610;2024-03-02T14:15:18;19.55;;;11.90;;
70985;SDS011;58645;43.068;25.610;2024-03-02T14:17:43;21.92;;;12.48;;
70985;SDS011;58645;43.068;25.610;2024-03-02T14:20:09;23.55;;;12.07;;
70985;SDS011;58645;43.068;25.610;2024-03-02T14:22:37;28.35;;;13.38;;
70985;SDS011;58645;43.068;25.610;2024-03-02T14:25:03;21.58;;;12.40;;
70985;SDS011;58645;43.068;25.610;2024-03-02T14:27:29;18.50;;;10.52;;
70985;SDS011;58645;43.068;25.610;2024-03-02T14:29:55;19.92;;;11.68;;
70985;SDS011;58645;43.068;25.610;2024-03-02T14:32:21;20.35;;;11.35;;
70985;SDS011;58645;43.068;25.610;2024-03-02T14:34:47;20.50;;;10.32;;
70985;SDS011;58645;43.068;25.610;2024-03-02T14:37:13;22.73;;;12.75;;
70985;SDS011;58645;43.068;25.610;2024-03-02T14:39:42;20.83;;;11.13;;
70985;SDS011;58645;43.068;25.610;2024-03-02T14:42:08;20.50;;;11.93;;
70985;SDS011;58645;43.068;25.610;2024-03-02T14:44:33;22.42;;;10.82;;